< Typhoon 201711 2017 Season Typhoon 201713 >
Typhoon 201712 (BANYAN)
General InformationTrack Information on Google MapsDetailed Wind InformationForecast History on Google MapsAccess Analytics MapList of All Images || NewsDisaster Info.WeblogTrackbackTyphoon FrontTwiphoonTyphoon Now!Typhoon ImaginationJMA Disaster Info. XMLResourceGoogle EarthGE AnimationAtom FeedGeoJSON
Detalied Best Track (Time Zone = UTC)
Year Month Day Hour Lat. Long. Pressure (hPa) Wind (kt) Class Image Chart
2017 8 10 18 16.0 170.9 1008 0 2 Image Chart
2017 8 11 00 16.4 169.9 1008 0 2 Image Chart
2017 8 11 06 16.9 168.9 1006 0 2 Image Chart
2017 8 11 12 17.3 168.0 1002 35 3 Image Chart
2017 8 11 18 17.8 166.9 996 45 3 Image Chart
2017 8 12 00 18.5 165.6 990 50 4 Image Chart
2017 8 12 06 19.3 164.9 980 60 4 Image Chart
2017 8 12 12 20.0 164.6 975 65 5 Image Chart
2017 8 12 18 20.5 164.3 965 70 5 Image Chart
2017 8 13 00 21.0 164.1 955 80 5 Image Chart
2017 8 13 06 21.4 163.9 955 80 5 Image Chart
2017 8 13 12 21.8 163.8 955 80 5 Image Chart
2017 8 13 18 22.2 163.7 960 75 5 Image Chart
2017 8 14 00 22.6 163.5 965 70 5 Image Chart
2017 8 14 06 23.2 163.3 965 70 5 Image Chart
2017 8 14 12 24.0 163.0 965 70 5 Image Chart
2017 8 14 18 25.0 162.7 965 70 5 Image Chart
2017 8 15 00 26.0 162.4 965 70 5 Image Chart
2017 8 15 06 27.1 162.2 975 65 5 Image Chart
2017 8 15 12 28.3 162.2 980 60 4 Image Chart
2017 8 15 18 29.8 162.6 980 60 4 Image Chart
2017 8 16 00 31.4 163.5 980 60 4 Image Chart
2017 8 16 06 33.3 165.3 980 60 4 Image Chart
2017 8 16 12 35.6 167.9 985 55 4 Image Chart
2017 8 16 18 38.0 170.7 990 50 4 Image Chart
2017 8 17 00 40.5 173.8 994 45 3 Image Chart
2017 8 17 06 43.0 176.0 996 0 6 Image Chart
2017 8 17 12 44.1 177.4 996 0 6 Image Chart
2017 8 17 18 45.5 179.4 998 0 6 Image Chart
2017 8 18 00 46.7 181.0 1000 0 6 Image Chart
Japan Meteorological Agency Best Track Data | Correction Date : 2017-09-28
< Typhoon 201711 2017 Season Typhoon 201713 >

Help